Time;durP1;ratioP1;P1;durP2;ratioP2;P2;SDS_P1;SDS_P2;PMS_P1;PMS_P2;Temp;Humidity;BMP_temperature;BMP_pressure;BME280_temperature;BME280_humidity;BME280_pressure;Samples;Min_cycle;Max_cycle;Signal;HPM_P1;HPM_P2
2022/10/20 00:00:12;;;;;;;2.33;1.30;;;7.80;99.90;;;;;;4974108;28;20046;-88
2022/10/20 00:02:37;;;;;;;3.22;1.35;;;7.00;99.90;;;;;;4988646;28;20042;-89
2022/10/20 00:09:31;;;;;;;4.30;1.40;;;7.00;99.90;;;;;;4963793;28;20053;-92
2022/10/20 00:11:56;;;;;;;3.97;1.30;;;7.00;99.90;;;;;;4959749;28;20086;-86
2022/10/20 00:14:22;;;;;;;2.92;1.67;;;6.80;99.90;;;;;;4986396;28;20078;-87
2022/10/20 00:16:48;;;;;;;2.38;1.35;;;7.20;99.90;;;;;;4975003;28;20041;-87
2022/10/20 00:19:14;;;;;;;6.22;1.67;;;6.90;99.90;;;;;;4973857;28;20053;-87
2022/10/20 00:21:39;;;;;;;2.88;1.63;;;7.80;99.90;;;;;;4968173;28;20042;-87
2022/10/20 00:24:05;;;;;;;4.88;1.58;;;6.60;99.90;;;;;;4976108;28;20078;-86
2022/10/20 00:26:31;;;;;;;6.07;1.63;;;7.10;99.90;;;;;;5003609;28;20046;-85
2022/10/20 00:28:57;;;;;;;2.45;1.50;;;7.60;99.90;;;;;;5007689;28;20570;-88
2022/10/20 00:31:24;;;;;;;4.68;2.03;;;7.30;99.90;;;;;;4999049;28;20094;-87
2022/10/20 00:33:50;;;;;;;3.22;1.80;;;8.00;99.90;;;;;;5003740;28;20035;-88
2022/10/20 00:36:18;;;;;;;6.13;2.00;;;7.70;99.90;;;;;;5005045;28;20090;-90
2022/10/20 00:38:44;;;;;;;5.95;1.92;;;8.10;99.90;;;;;;5003374;28;20043;-86
2022/10/20 00:41:19;;;;;;;3.08;1.75;;;6.50;99.90;;;;;;4980932;28;20054;-86
2022/10/20 00:43:51;;;;;;;2.88;1.38;;;7.70;99.90;;;;;;4998833;28;20054;-88
2022/10/20 00:46:24;;;;;;;7.47;1.80;;;6.90;99.90;;;;;;4982422;28;20093;-86
2022/10/20 00:48:55;;;;;;;2.10;1.30;;;6.80;99.90;;;;;;4972058;28;20042;-88
2022/10/20 00:51:25;;;;;;;3.22;1.33;;;6.80;99.90;;;;;;4965153;28;20038;-87
2022/10/20 00:53:54;;;;;;;3.25;1.63;;;7.00;99.90;;;;;;4971543;28;20089;-87
2022/10/20 00:56:22;;;;;;;4.32;1.52;;;6.80;99.90;;;;;;4986077;28;20523;-86
2022/10/20 00:58:48;;;;;;;3.20;1.60;;;8.00;99.90;;;;;;4970948;28;20391;-89
2022/10/20 01:01:14;;;;;;;4.15;1.60;;;7.30;99.90;;;;;;4983146;28;20042;-89
2022/10/20 01:03:46;;;;;;;3.00;1.33;;;6.60;99.90;;;;;;4961599;28;20054;-88
2022/10/20 01:06:18;;;;;;;3.15;1.17;;;6.70;99.90;;;;;;4988414;28;20042;-88
2022/10/20 01:08:44;;;;;;;3.80;1.92;;;7.80;99.90;;;;;;4961045;28;20483;-87
2022/10/20 01:11:18;;;;;;;3.58;1.60;;;6.60;99.90;;;;;;4960835;28;20053;-87
2022/10/20 01:13:53;;;;;;;4.30;1.40;;;6.70;99.90;;;;;;4986044;28;20046;-87
2022/10/20 01:16:50;;;;;;;4.55;1.50;;;7.00;99.90;;;;;;4963159;28;20134;-90
2022/10/20 01:19:37;;;;;;;2.75;1.10;;;6.60;99.90;;;;;;4920227;29;20127;-86
2022/10/20 01:22:29;;;;;;;3.28;1.13;;;6.60;99.90;;;;;;4911620;29;20489;-90
2022/10/20 01:25:06;;;;;;;1.55;0.98;;;6.50;99.90;;;;;;4910947;29;20429;-87
2022/10/20 01:27:43;;;;;;;3.13;1.60;;;6.50;99.90;;;;;;4921322;29;20044;-89
2022/10/20 01:30:16;;;;;;;3.85;1.65;;;7.20;99.90;;;;;;4912362;29;20082;-88
2022/10/20 01:33:05;;;;;;;3.28;1.65;;;6.50;99.90;;;;;;4919747;29;20044;-88
2022/10/20 01:35:40;;;;;;;2.42;1.52;;;6.50;99.90;;;;;;4870351;29;20044;-88
2022/10/20 01:38:29;;;;;;;3.13;1.60;;;6.50;99.90;;;;;;4860413;29;20050;-87
2022/10/20 01:41:16;;;;;;;3.50;1.73;;;6.50;99.90;;;;;;4851310;29;20125;-87
2022/10/20 01:43:45;;;;;;;2.90;1.30;;;6.40;99.90;;;;;;4846900;29;20133;-86
2022/10/20 01:46:12;;;;;;;4.35;1.92;;;7.00;99.90;;;;;;4870249;29;20546;-88
2022/10/20 01:48:39;;;;;;;2.42;1.50;;;6.90;99.90;;;;;;4855341;29;20085;-89
2022/10/20 01:51:08;;;;;;;2.72;1.35;;;7.50;99.90;;;;;;4866448;29;20099;-86
2022/10/20 01:53:34;;;;;;;2.70;1.42;;;6.40;99.90;;;;;;4866950;29;20227;-88
2022/10/20 01:56:01;;;;;;;1.73;1.10;;;6.60;99.90;;;;;;4883871;29;20130;-91
2022/10/20 01:58:35;;;;;;;2.42;1.20;;;6.00;99.90;;;;;;4881426;29;20124;-88
2022/10/20 02:01:34;;;;;;;2.58;1.45;;;6.30;99.90;;;;;;4907459;29;20180;-90
2022/10/20 02:04:03;;;;;;;1.83;1.08;;;6.30;99.90;;;;;;4854968;29;20094;-90
2022/10/20 02:10:26;;;;;;;2.15;1.30;;;6.20;99.90;;;;;;4857719;29;20056;-91
2022/10/20 02:12:59;;;;;;;4.10;1.20;;;6.20;99.90;;;;;;4878589;29;20059;-89
2022/10/20 02:15:26;;;;;;;2.85;1.20;;;6.20;99.90;;;;;;4909739;29;20063;-90
2022/10/20 02:17:57;;;;;;;4.88;1.00;;;6.20;99.90;;;;;;4907124;29;20048;-92
2022/10/20 02:20:24;;;;;;;2.08;1.10;;;7.00;99.90;;;;;;4884035;29;20555;-90
2022/10/20 02:22:50;;;;;;;1.55;1.10;;;6.30;99.90;;;;;;4888777;29;20061;-92
2022/10/20 02:25:15;;;;;;;1.98;1.00;;;6.70;99.90;;;;;;4913871;29;20510;-91
2022/10/20 02:27:45;;;;;;;2.45;1.30;;;6.10;99.90;;;;;;4914677;29;20056;-91
2022/10/20 02:30:14;;;;;;;3.28;1.00;;;6.40;99.90;;;;;;4914033;29;20069;-90
2022/10/20 02:32:42;;;;;;;2.33;1.10;;;5.90;99.90;;;;;;4897134;29;20048;-89
2022/10/20 02:35:13;;;;;;;1.80;1.10;;;7.10;99.90;;;;;;4905593;29;135085;-89
2022/10/20 02:37:39;;;;;;;3.75;1.23;;;6.10;99.90;;;;;;4934656;29;20055;-90
2022/10/20 02:40:06;;;;;;;1.50;0.95;;;7.20;99.90;;;;;;4933584;28;20519;-88
2022/10/20 02:42:32;;;;;;;4.57;1.15;;;6.00;99.90;;;;;;4947880;29;20078;-87
2022/10/20 02:44:57;;;;;;;1.73;1.00;;;6.00;99.90;;;;;;4941586;29;20404;-87
2022/10/20 02:47:23;;;;;;;4.05;1.30;;;6.00;99.90;;;;;;4964038;28;20503;-87
2022/10/20 02:49:49;;;;;;;1.55;1.20;;;5.90;99.90;;;;;;4946791;29;20051;-86
2022/10/20 02:52:15;;;;;;;2.75;1.38;;;6.80;99.90;;;;;;4947867;28;20051;-87
2022/10/20 02:54:40;;;;;;;5.95;1.27;;;7.10;99.90;;;;;;4962020;28;20043;-84
2022/10/20 02:57:06;;;;;;;1.60;1.10;;;5.90;99.90;;;;;;4963605;28;20069;-84
2022/10/20 02:59:32;;;;;;;4.15;1.50;;;6.60;99.90;;;;;;4946376;29;20082;-87
2022/10/20 03:01:58;;;;;;;1.98;1.10;;;6.70;99.90;;;;;;4962479;28;20125;-86
2022/10/20 03:04:24;;;;;;;1.13;0.77;;;5.90;99.90;;;;;;4963468;28;20167;-86
2022/10/20 03:06:49;;;;;;;2.53;1.25;;;5.80;99.90;;;;;;4945977;29;20058;-87
2022/10/20 03:09:15;;;;;;;2.17;1.02;;;5.80;99.90;;;;;;4946832;28;20043;-86
2022/10/20 03:11:41;;;;;;;4.63;1.35;;;5.80;99.90;;;;;;4933031;28;20115;-86
2022/10/20 03:14:07;;;;;;;1.23;0.80;;;5.80;99.90;;;;;;4940807;29;20043;-85
2022/10/20 03:16:32;;;;;;;1.88;1.30;;;5.80;99.90;;;;;;4949075;28;20039;-88
2022/10/20 03:18:58;;;;;;;2.38;1.40;;;7.00;99.90;;;;;;4949052;28;20105;-88
2022/10/20 03:21:24;;;;;;;2.28;1.00;;;7.00;99.90;;;;;;4963701;28;20051;-88
2022/10/20 03:23:49;;;;;;;2.80;1.27;;;5.70;99.90;;;;;;4943573;28;20038;-87
2022/10/20 03:26:15;;;;;;;1.60;1.02;;;6.20;99.90;;;;;;4963170;28;20047;-85
2022/10/20 03:28:41;;;;;;;2.38;1.30;;;6.20;99.90;;;;;;4966236;28;20487;-87
2022/10/20 03:31:08;;;;;;;1.83;1.30;;;6.20;99.90;;;;;;4966304;28;20047;-88
2022/10/20 03:33:33;;;;;;;2.15;1.10;;;6.00;99.90;;;;;;4946288;28;20053;-90
2022/10/20 03:35:59;;;;;;;3.88;1.15;;;6.80;99.90;;;;;;4967949;28;20439;-85
2022/10/20 03:38:25;;;;;;;2.83;1.30;;;5.60;99.90;;;;;;4966227;28;20046;-89
2022/10/20 03:40:51;;;;;;;3.67;1.27;;;5.60;99.90;;;;;;4974267;28;20051;-87
2022/10/20 03:43:16;;;;;;;2.30;1.30;;;6.30;99.90;;;;;;4981386;28;20042;-88
2022/10/20 03:45:42;;;;;;;4.30;1.98;;;5.30;99.90;;;;;;4966441;28;20443;-92
2022/10/20 03:48:10;;;;;;;5.82;2.20;;;6.70;99.90;;;;;;4967910;28;20042;-91
2022/10/20 03:50:38;;;;;;;3.50;2.20;;;5.90;99.90;;;;;;4982569;28;20043;-90
2022/10/20 03:53:04;;;;;;;4.95;2.28;;;6.80;99.90;;;;;;4974790;28;20062;-88
2022/10/20 03:55:29;;;;;;;4.05;2.20;;;4.70;99.90;;;;;;4961730;28;20039;-92
2022/10/20 03:57:56;;;;;;;5.45;1.92;;;6.60;99.90;;;;;;4984977;28;20120;-88
2022/10/20 04:00:22;;;;;;;5.45;2.65;;;5.60;99.90;;;;;;4966671;28;20053;-86
2022/10/20 04:02:47;;;;;;;4.50;1.67;;;6.00;99.90;;;;;;4982147;28;20038;-90
2022/10/20 04:05:16;;;;;;;2.60;1.60;;;6.90;99.90;;;;;;4981574;28;20046;-87
2022/10/20 04:07:42;;;;;;;3.88;1.80;;;5.60;99.90;;;;;;4983229;28;20049;-87
2022/10/20 04:10:09;;;;;;;4.68;1.90;;;6.90;99.90;;;;;;4984603;28;20046;-87
2022/10/20 04:12:35;;;;;;;4.25;1.70;;;6.00;99.90;;;;;;4982715;28;20049;-89
2022/10/20 04:15:01;;;;;;;4.35;2.00;;;5.60;99.90;;;;;;4980364;28;20039;-89
2022/10/20 04:17:27;;;;;;;3.50;1.70;;;6.00;99.90;;;;;;4963588;28;20122;-87
2022/10/20 04:19:52;;;;;;;3.85;2.08;;;6.70;99.90;;;;;;4963903;28;20117;-88
2022/10/20 04:22:18;;;;;;;3.90;2.17;;;6.20;99.90;;;;;;4962630;28;20050;-90
2022/10/20 04:24:44;;;;;;;2.78;1.73;;;5.50;99.90;;;;;;4958349;28;20122;-87
2022/10/20 04:27:09;;;;;;;6.20;2.38;;;4.90;99.90;;;;;;4967268;28;20388;-89
2022/10/20 04:29:35;;;;;;;4.10;2.05;;;4.30;99.90;;;;;;4966278;28;20046;-88
2022/10/20 04:32:01;;;;;;;2.90;1.77;;;5.60;99.90;;;;;;4981082;28;20027;-92
2022/10/20 04:34:27;;;;;;;3.72;1.52;;;6.00;99.90;;;;;;4964071;28;20105;-91
2022/10/20 04:36:52;;;;;;;5.85;2.10;;;6.00;99.90;;;;;;4963870;28;20055;-91
2022/10/20 04:39:18;;;;;;;3.30;1.65;;;6.50;99.90;;;;;;4964185;28;20122;-90
2022/10/20 04:41:44;;;;;;;3.22;2.13;;;6.00;99.90;;;;;;4965811;28;20084;-91
2022/10/20 04:44:09;;;;;;;3.38;1.45;;;6.40;99.90;;;;;;4985131;28;20371;-89
2022/10/20 04:46:35;;;;;;;3.67;2.17;;;5.80;99.90;;;;;;4990100;28;20479;-90
2022/10/20 04:49:01;;;;;;;3.92;2.22;;;5.10;99.90;;;;;;4989699;28;20035;-89
2022/10/20 04:51:26;;;;;;;4.55;2.10;;;5.50;99.90;;;;;;4971586;28;20109;-90
2022/10/20 04:53:53;;;;;;;3.97;2.13;;;5.40;99.90;;;;;;4981681;28;20042;-91
2022/10/20 04:56:20;;;;;;;2.38;1.50;;;6.10;99.90;;;;;;4980500;28;20078;-86
2022/10/20 04:58:54;;;;;;;2.72;1.70;;;5.50;99.90;;;;;;4963366;28;20042;-91
2022/10/20 05:01:21;;;;;;;4.25;2.25;;;5.50;99.90;;;;;;4964116;28;20050;-92
2022/10/20 05:03:47;;;;;;;3.15;1.98;;;6.40;99.90;;;;;;4948184;28;20051;-89
2022/10/20 05:06:16;;;;;;;4.20;1.98;;;6.20;99.90;;;;;;4974194;28;20527;-91
2022/10/20 05:08:43;;;;;;;4.05;2.17;;;5.50;99.90;;;;;;4974649;28;20077;-88
2022/10/20 05:11:09;;;;;;;5.80;2.70;;;5.30;99.90;;;;;;4974166;28;20055;-85
2022/10/20 05:13:35;;;;;;;5.03;2.58;;;5.60;99.90;;;;;;4979510;28;20042;-86
2022/10/20 05:16:01;;;;;;;5.38;2.85;;;6.70;99.90;;;;;;4980032;28;20130;-86
2022/10/20 05:18:27;;;;;;;4.13;2.10;;;6.80;99.90;;;;;;4980967;28;20035;-87
2022/10/20 05:20:53;;;;;;;7.75;2.65;;;6.50;99.90;;;;;;4981951;28;20407;-87
2022/10/20 05:23:19;;;;;;;4.00;2.55;;;5.50;99.90;;;;;;4969081;28;20047;-85
2022/10/20 05:25:44;;;;;;;5.97;2.38;;;5.70;99.90;;;;;;4965415;28;20058;-85
2022/10/20 05:28:10;;;;;;;3.03;1.80;;;6.50;99.90;;;;;;4986024;28;20045;-86
2022/10/20 05:30:36;;;;;;;5.63;3.13;;;5.80;99.90;;;;;;4986271;28;20054;-90
2022/10/20 05:33:02;;;;;;;6.05;2.92;;;5.80;99.90;;;;;;4985989;28;20038;-88
2022/10/20 05:35:29;;;;;;;5.28;2.50;;;6.80;99.90;;;;;;4987646;28;20042;-85
2022/10/20 05:37:55;;;;;;;8.02;2.78;;;6.30;99.90;;;;;;4986010;28;20043;-89
2022/10/20 05:40:21;;;;;;;4.80;2.63;;;5.90;99.90;;;;;;4963472;28;20045;-89
2022/10/20 05:42:47;;;;;;;5.50;2.67;;;5.90;99.90;;;;;;4962172;28;20526;-84
2022/10/20 05:45:13;;;;;;;4.93;2.92;;;5.50;99.90;;;;;;4982243;28;20070;-85
2022/10/20 05:47:39;;;;;;;5.72;3.38;;;5.50;99.90;;;;;;4982579;28;20038;-86
2022/10/20 05:50:05;;;;;;;7.72;2.80;;;5.50;99.90;;;;;;4967514;28;20483;-85
2022/10/20 05:52:31;;;;;;;4.82;3.00;;;5.50;99.90;;;;;;4983690;28;20046;-85
2022/10/20 05:54:58;;;;;;;4.93;2.70;;;5.60;99.90;;;;;;4966436;28;20046;-85
2022/10/20 05:57:26;;;;;;;5.13;2.78;;;6.00;99.90;;;;;;4964448;28;20046;-84
2022/10/20 05:59:52;;;;;;;9.10;3.47;;;5.40;99.90;;;;;;4962796;28;20089;-85
2022/10/20 06:02:18;;;;;;;6.97;3.65;;;6.80;99.90;;;;;;4985698;28;20035;-87
2022/10/20 06:04:44;;;;;;;7.13;3.95;;;5.70;99.90;;;;;;4969757;28;20108;-87
2022/10/20 06:07:10;;;;;;;6.57;3.75;;;6.60;99.90;;;;;;4966992;28;20075;-86
2022/10/20 06:09:36;;;;;;;5.85;3.67;;;5.40;99.90;;;;;;4983416;28;20035;-86
2022/10/20 06:12:03;;;;;;;6.72;4.13;;;5.40;99.90;;;;;;4983184;28;20377;-86
2022/10/20 06:14:29;;;;;;;6.90;4.18;;;5.50;99.90;;;;;;4958149;28;20057;-86
2022/10/20 06:16:55;;;;;;;8.80;4.43;;;5.40;99.90;;;;;;4964666;28;20121;-86
2022/10/20 06:19:22;;;;;;;5.93;3.22;;;5.50;99.90;;;;;;4968193;28;20034;-86
2022/10/20 06:21:47;;;;;;;8.05;3.97;;;5.60;99.90;;;;;;4986717;28;20454;-88
2022/10/20 06:24:18;;;;;;;5.25;3.25;;;5.40;99.90;;;;;;4985776;28;20039;-86
2022/10/20 06:26:44;;;;;;;6.75;3.88;;;6.10;99.90;;;;;;4960979;28;20484;-87
2022/10/20 06:29:12;;;;;;;9.48;4.13;;;6.70;99.90;;;;;;4967204;28;20046;-86
2022/10/20 06:31:45;;;;;;;7.75;4.20;;;6.80;99.90;;;;;;4965813;28;20100;-88
2022/10/20 06:34:22;;;;;;;10.88;4.93;;;6.20;99.90;;;;;;4983166;28;20474;-88
2022/10/20 06:36:48;;;;;;;9.20;5.40;;;6.00;99.90;;;;;;4965688;28;20075;-86
2022/10/20 06:39:20;;;;;;;7.88;4.70;;;6.70;99.90;;;;;;4958688;28;20399;-87
2022/10/20 06:41:55;;;;;;;8.63;4.28;;;6.00;99.90;;;;;;4965794;28;20049;-89
2022/10/20 06:44:22;;;;;;;6.70;3.90;;;6.90;99.90;;;;;;4964126;28;20081;-88
2022/10/20 06:46:51;;;;;;;9.48;4.40;;;5.70;99.90;;;;;;4966650;28;20034;-87
2022/10/20 06:49:16;;;;;;;5.57;3.50;;;5.60;99.90;;;;;;4982973;28;20046;-87
2022/10/20 06:51:42;;;;;;;12.38;5.30;;;4.80;99.90;;;;;;4957538;28;20097;-86
2022/10/20 06:54:08;;;;;;;10.43;4.88;;;6.30;99.90;;;;;;4948942;28;20074;-85
2022/10/20 06:56:35;;;;;;;11.07;4.95;;;5.80;99.90;;;;;;4982707;28;20130;-88
2022/10/20 06:59:02;;;;;;;9.27;5.00;;;5.30;99.90;;;;;;4966126;28;20042;-87
2022/10/20 07:01:32;;;;;;;10.65;5.07;;;5.80;99.90;;;;;;4965139;28;20051;-86
2022/10/20 07:04:12;;;;;;;9.10;4.13;;;5.80;99.90;;;;;;4957553;28;20214;-89
2022/10/20 07:06:40;;;;;;;7.80;4.07;;;6.90;99.90;;;;;;4982717;28;20043;-87
2022/10/20 07:09:10;;;;;;;6.38;4.10;;;5.90;99.90;;;;;;4966111;28;20054;-87
2022/10/20 07:11:36;;;;;;;5.15;3.35;;;6.00;99.90;;;;;;4967546;28;20089;-89
2022/10/20 07:14:03;;;;;;;8.55;3.80;;;6.00;99.90;;;;;;4971146;28;20132;-87
2022/10/20 07:16:31;;;;;;;5.97;3.22;;;7.20;99.90;;;;;;4981265;28;20058;-85
2022/10/20 07:18:58;;;;;;;5.03;3.05;;;7.20;99.90;;;;;;4982452;28;20129;-85
2022/10/20 07:21:26;;;;;;;5.55;3.50;;;6.10;99.90;;;;;;4966853;28;20128;-85
2022/10/20 07:23:54;;;;;;;6.97;3.28;;;6.50;99.90;;;;;;4962664;28;20043;-86
2022/10/20 07:26:29;;;;;;;7.90;4.50;;;6.30;99.90;;;;;;4965194;28;20050;-87
2022/10/20 07:28:56;;;;;;;6.22;3.95;;;6.30;99.90;;;;;;4985368;28;20046;-86
2022/10/20 07:31:29;;;;;;;7.68;3.90;;;7.30;99.90;;;;;;4989907;28;20082;-85
2022/10/20 07:33:57;;;;;;;8.20;4.18;;;6.40;99.90;;;;;;4984920;28;20065;-87
2022/10/20 07:36:28;;;;;;;7.45;3.72;;;6.50;99.90;;;;;;4984587;28;20074;-85
2022/10/20 07:38:56;;;;;;;8.68;5.03;;;7.10;99.90;;;;;;4976985;28;20090;-88
2022/10/20 07:41:22;;;;;;;7.78;4.30;;;7.10;99.90;;;;;;4975503;28;20433;-89
2022/10/20 07:43:47;;;;;;;6.82;4.07;;;6.80;99.90;;;;;;4975237;28;20039;-91
2022/10/20 07:46:14;;;;;;;6.00;3.70;;;6.60;99.90;;;;;;4975305;28;20113;-90
2022/10/20 07:48:40;;;;;;;9.00;4.72;;;7.20;99.90;;;;;;4974679;28;20051;-90
2022/10/20 07:51:23;;;;;;;6.13;3.83;;;5.80;99.90;;;;;;4974831;28;20043;-90
2022/10/20 07:53:50;;;;;;;6.20;4.30;;;7.50;99.90;;;;;;4974798;28;20074;-90
2022/10/20 07:56:16;;;;;;;10.30;4.05;;;7.50;99.90;;;;;;4974895;28;20046;-89
2022/10/20 07:58:43;;;;;;;6.50;3.72;;;7.10;99.90;;;;;;4957304;28;20047;-90
2022/10/20 08:01:09;;;;;;;6.82;3.47;;;6.90;99.90;;;;;;4974501;28;20045;-90
2022/10/20 08:03:35;;;;;;;5.75;3.40;;;8.10;99.90;;;;;;4974762;28;20207;-88
2022/10/20 08:06:01;;;;;;;7.70;3.85;;;7.00;99.90;;;;;;4974316;28;20539;-90
2022/10/20 08:08:27;;;;;;;8.63;4.53;;;8.10;99.90;;;;;;4974223;28;20039;-90
2022/10/20 08:10:53;;;;;;;7.85;3.83;;;7.10;99.90;;;;;;4974218;28;20134;-90
2022/10/20 08:13:19;;;;;;;8.65;4.13;;;8.00;99.90;;;;;;4957296;28;20193;-91
2022/10/20 08:15:45;;;;;;;9.82;4.00;;;8.20;99.90;;;;;;4974504;28;20100;-91
2022/10/20 08:18:10;;;;;;;6.70;3.55;;;8.10;99.90;;;;;;4974556;28;20047;-87
2022/10/20 08:20:36;;;;;;;6.90;3.58;;;7.30;99.90;;;;;;4973680;28;20595;-90
2022/10/20 08:23:02;;;;;;;8.60;3.95;;;7.30;99.90;;;;;;4974148;28;20055;-88
2022/10/20 08:25:28;;;;;;;5.50;3.50;;;7.30;99.90;;;;;;4974427;28;20086;-89
2022/10/20 08:27:53;;;;;;;5.43;2.97;;;7.70;99.90;;;;;;4974204;28;20047;-90
2022/10/20 08:30:19;;;;;;;5.18;3.00;;;7.90;99.90;;;;;;4974025;28;20069;-86
2022/10/20 08:32:45;;;;;;;6.65;3.78;;;7.60;99.90;;;;;;4974065;28;20125;-86
2022/10/20 08:35:10;;;;;;;5.32;3.70;;;7.60;99.90;;;;;;4973866;28;20055;-88
2022/10/20 08:37:36;;;;;;;7.45;3.45;;;7.70;99.90;;;;;;4974091;28;20560;-88
2022/10/20 08:40:05;;;;;;;5.13;3.35;;;8.90;99.90;;;;;;4973903;28;20047;-87
2022/10/20 08:42:39;;;;;;;4.63;2.85;;;7.80;99.90;;;;;;4957006;28;20083;-86
2022/10/20 08:45:05;;;;;;;5.15;2.88;;;8.30;99.90;;;;;;4974110;28;20483;-89
2022/10/20 08:47:36;;;;;;;5.97;3.25;;;8.00;99.90;;;;;;4974126;28;20068;-89
2022/10/20 08:50:05;;;;;;;7.72;3.92;;;8.10;99.90;;;;;;4974120;28;20050;-87
2022/10/20 08:52:31;;;;;;;6.72;3.75;;;8.20;99.90;;;;;;4974220;28;20734;-89
2022/10/20 08:54:57;;;;;;;6.72;4.25;;;9.10;99.90;;;;;;4957236;28;20042;-90
2022/10/20 08:57:27;;;;;;;6.57;3.75;;;8.30;99.90;;;;;;4974483;28;20042;-90
2022/10/20 08:59:55;;;;;;;6.00;3.08;;;8.70;99.90;;;;;;4964198;28;20513;-88
2022/10/20 09:02:21;;;;;;;8.23;4.40;;;9.10;99.90;;;;;;4987006;28;20066;-87
2022/10/20 09:04:51;;;;;;;6.57;3.42;;;8.50;99.90;;;;;;4979833;28;20051;-89
2022/10/20 09:07:25;;;;;;;5.95;3.50;;;8.60;99.90;;;;;;4978022;28;20038;-88
2022/10/20 09:09:56;;;;;;;5.68;3.60;;;8.60;99.90;;;;;;4977768;28;20050;-86
2022/10/20 09:12:22;;;;;;;5.95;3.70;;;8.70;99.90;;;;;;4960259;28;20046;-86
2022/10/20 09:14:48;;;;;;;6.15;3.05;;;8.90;99.90;;;;;;4960597;28;20061;-87
2022/10/20 09:17:17;;;;;;;7.28;3.35;;;8.90;99.90;;;;;;4960498;28;20093;-87
2022/10/20 09:19:50;;;;;;;10.32;3.90;;;8.90;99.90;;;;;;4977726;28;20046;-89
2022/10/20 09:22:21;;;;;;;8.77;3.85;;;9.60;99.90;;;;;;4978166;28;20086;-90
2022/10/20 09:24:48;;;;;;;7.22;2.72;;;9.40;99.90;;;;;;4978198;28;20042;-86
2022/10/20 09:27:22;;;;;;;4.38;2.90;;;9.40;99.90;;;;;;4978831;28;20038;-88
2022/10/20 09:29:47;;;;;;;5.28;3.15;;;10.00;99.90;;;;;;4978607;28;20109;-87
2022/10/20 09:32:20;;;;;;;5.03;3.38;;;9.50;99.90;;;;;;4978302;28;20042;-88
2022/10/20 09:34:45;;;;;;;7.22;3.67;;;9.50;99.90;;;;;;4977391;28;20073;-89
2022/10/20 09:37:14;;;;;;;5.80;3.00;;;9.60;99.90;;;;;;4979109;28;20074;-88
2022/10/20 09:39:46;;;;;;;6.10;3.47;;;9.60;99.90;;;;;;4988821;28;20082;-85
2022/10/20 09:42:14;;;;;;;6.78;4.18;;;9.70;99.90;;;;;;4997783;28;20034;-85
2022/10/20 09:45:03;;;;;;;10.85;4.50;;;9.80;99.90;;;;;;4998417;28;20051;-89
2022/10/20 09:47:29;;;;;;;5.35;3.55;;;9.90;99.90;;;;;;4999834;28;20066;-86
2022/10/20 09:50:01;;;;;;;5.85;3.17;;;9.90;99.90;;;;;;4999099;28;20066;-83
2022/10/20 09:52:36;;;;;;;4.25;2.85;;;10.00;99.90;;;;;;4999438;28;20053;-86
2022/10/20 09:55:15;;;;;;;4.07;2.83;;;10.00;99.90;;;;;;4983076;28;20054;-85
2022/10/20 09:57:46;;;;;;;5.10;3.47;;;10.10;99.90;;;;;;4981949;28;20043;-86
2022/10/20 10:00:23;;;;;;;4.78;2.85;;;10.50;99.90;;;;;;4994961;28;20050;-87
2022/10/20 10:03:20;;;;;;;5.60;3.25;;;10.20;99.90;;;;;;4983340;28;20055;-87
2022/10/20 10:05:47;;;;;;;;;;;10.20;99.90;;;;;;4978075;28;20400;-84
2022/10/20 10:08:14;;;;;;;7.63;3.45;;;10.40;99.90;;;;;;4976482;28;20037;-85
2022/10/20 10:10:40;;;;;;;7.30;2.97;;;10.30;99.90;;;;;;4976494;28;20038;-86
2022/10/20 10:13:24;;;;;;;5.75;3.20;;;10.40;99.90;;;;;;4984525;28;20505;-83
2022/10/20 10:16:02;;;;;;;3.40;2.00;;;10.40;99.90;;;;;;4987769;28;20042;-85
2022/10/20 10:18:28;;;;;;;4.97;2.63;;;10.50;99.90;;;;;;4987386;28;20117;-87
2022/10/20 10:21:03;;;;;;;3.08;2.17;;;10.60;99.90;;;;;;4987069;28;20061;-85
2022/10/20 10:23:39;;;;;;;4.40;2.45;;;10.60;99.90;;;;;;4983931;28;20126;-85
2022/10/20 10:26:33;;;;;;;6.97;3.42;;;10.70;99.90;;;;;;4984366;28;20042;-86
2022/10/20 10:28:59;;;;;;;4.47;2.70;;;10.80;99.90;;;;;;4971260;28;20399;-84
2022/10/20 10:31:25;;;;;;;4.88;2.53;;;10.90;99.90;;;;;;4984358;28;20050;-85
2022/10/20 10:34:11;;;;;;;4.03;2.55;;;10.90;99.90;;;;;;4986818;28;20054;-84
2022/10/20 10:36:37;;;;;;;4.07;2.47;;;11.00;99.90;;;;;;4984667;28;20062;-83
2022/10/20 10:39:06;;;;;;;5.97;3.08;;;11.50;99.90;;;;;;4971289;28;20088;-86
2022/10/20 10:42:06;;;;;;;5.07;2.78;;;11.70;99.90;;;;;;4968368;28;20100;-84
2022/10/20 10:45:01;;;;;;;5.85;2.50;;;11.20;99.90;;;;;;4916499;29;20064;-85
2022/10/20 10:47:39;;;;;;;5.30;2.83;;;11.30;99.90;;;;;;4897430;29;20169;-83
2022/10/20 10:50:16;;;;;;;3.92;2.67;;;11.40;99.90;;;;;;4897662;29;20056;-85
2022/10/20 10:53:00;;;;;;;4.50;2.25;;;11.50;99.90;;;;;;4898561;29;20131;-85
2022/10/20 10:55:32;;;;;;;4.43;1.85;;;11.70;99.90;;;;;;4915865;29;20097;-85
2022/10/20 10:58:09;;;;;;;3.42;2.17;;;11.80;99.90;;;;;;4923558;29;20466;-85
2022/10/20 11:01:02;;;;;;;4.43;2.70;;;11.90;99.90;;;;;;4915557;29;20050;-84
2022/10/20 11:03:40;;;;;;;4.28;2.45;;;11.90;99.90;;;;;;4923326;29;20057;-85
2022/10/20 11:17:24;;;;;;;3.78;2.67;;;12.30;99.90;;;;;;4917145;29;20043;-87
2022/10/20 11:20:16;;;;;;;3.30;2.00;;;12.40;99.90;;;;;;4919063;28;20099;-90
2022/10/20 11:22:55;;;;;;;4.45;2.35;;;12.50;99.90;;;;;;4915572;29;20056;-88
2022/10/20 11:25:38;;;;;;;5.47;2.35;;;12.20;99.90;;;;;;4900681;29;20082;-88
2022/10/20 11:28:28;;;;;;;5.97;2.28;;;12.80;99.90;;;;;;4907897;29;20063;-89
2022/10/20 11:30:56;;;;;;;5.43;2.25;;;13.30;99.90;;;;;;4914750;29;20087;-90
2022/10/20 11:33:29;;;;;;;2.50;1.70;;;12.90;99.90;;;;;;4918197;29;20405;-87
2022/10/20 11:36:07;;;;;;;3.90;2.25;;;13.70;99.90;;;;;;4917033;29;20139;-88
2022/10/20 11:38:49;;;;;;;5.78;1.85;;;13.10;99.90;;;;;;4914966;29;20130;-89
2022/10/20 11:41:43;;;;;;;2.17;1.67;;;13.10;99.90;;;;;;4898897;29;20060;-89
2022/10/20 11:44:26;;;;;;;3.20;1.63;;;13.20;99.90;;;;;;4915345;29;20044;-88
2022/10/20 11:47:06;;;;;;;2.55;1.40;;;13.30;99.90;;;;;;4918965;29;20549;-85
2022/10/20 11:49:33;;;;;;;4.00;2.05;;;13.40;99.90;;;;;;4916514;29;20568;-88
2022/10/20 11:52:13;;;;;;;4.53;2.30;;;13.30;99.90;;;;;;4914835;29;20138;-85
2022/10/20 11:54:57;;;;;;;5.45;3.08;;;13.50;99.90;;;;;;4897433;29;20052;-86
2022/10/20 11:58:02;;;;;;;3.17;1.92;;;13.30;99.90;;;;;;4921871;29;20056;-87
2022/10/20 12:00:38;;;;;;;3.33;2.20;;;13.30;99.90;;;;;;4875963;29;20049;-88
2022/10/20 12:03:16;;;;;;;4.35;2.20;;;13.30;99.90;;;;;;4878148;29;20056;-89
2022/10/20 12:06:03;;;;;;;2.63;1.73;;;13.30;99.90;;;;;;4878402;29;20056;-88
2022/10/20 12:08:58;;;;;;;3.13;1.60;;;13.40;99.90;;;;;;4886231;29;20553;-88
2022/10/20 12:11:50;;;;;;;4.53;1.80;;;13.40;99.90;;;;;;4886001;29;20109;-87
2022/10/20 12:14:29;;;;;;;2.83;1.83;;;13.40;99.90;;;;;;4814172;29;20179;-86
2022/10/20 12:16:57;;;;;;;4.88;2.20;;;13.40;99.90;;;;;;4816834;29;20085;-87
2022/10/20 12:19:30;;;;;;;4.90;2.42;;;13.40;99.90;;;;;;4815287;29;20069;-89
2022/10/20 12:22:15;;;;;;;3.17;1.80;;;13.60;99.90;;;;;;4832956;29;20423;-88
2022/10/20 12:24:53;;;;;;;3.35;2.03;;;13.40;99.90;;;;;;4830640;29;20058;-90
2022/10/20 12:27:20;;;;;;;3.22;1.70;;;13.40;99.90;;;;;;4815628;29;20412;-89
2022/10/20 12:30:00;;;;;;;2.72;1.63;;;13.30;99.90;;;;;;4821443;29;20137;-88
2022/10/20 12:32:28;;;;;;;4.63;1.50;;;13.30;99.90;;;;;;4828914;29;20432;-85
2022/10/20 12:34:59;;;;;;;2.03;1.50;;;13.30;99.90;;;;;;4853992;29;20061;-89
2022/10/20 12:37:29;;;;;;;2.45;1.55;;;13.30;99.90;;;;;;4913866;29;20580;-87
2022/10/20 12:40:18;;;;;;;2.75;1.50;;;13.30;99.90;;;;;;4914046;29;20083;-86
2022/10/20 12:42:50;;;;;;;1.58;1.13;;;13.30;99.90;;;;;;4897999;29;20051;-86
2022/10/20 12:45:19;;;;;;;2.08;1.27;;;12.70;99.90;;;;;;4904962;29;20489;-88
2022/10/20 12:48:00;;;;;;;4.45;1.60;;;13.20;99.90;;;;;;4921102;29;20052;-87
2022/10/20 12:50:32;;;;;;;1.67;1.17;;;13.30;99.90;;;;;;4923109;28;20054;-88
2022/10/20 12:53:14;;;;;;;4.63;2.47;;;13.20;99.90;;;;;;4965175;28;20178;-88
2022/10/20 12:55:41;;;;;;;3.58;2.25;;;13.20;99.90;;;;;;4972773;28;20504;-87
2022/10/20 12:58:15;;;;;;;3.40;1.50;;;13.20;99.90;;;;;;4973802;28;20047;-88
2022/10/20 13:00:47;;;;;;;3.27;2.00;;;13.10;99.90;;;;;;4973156;28;20045;-88
2022/10/20 13:03:38;;;;;;;3.17;1.42;;;13.10;99.90;;;;;;4972967;28;20039;-91
2022/10/20 13:06:22;;;;;;;2.60;1.27;;;13.00;99.90;;;;;;4960831;28;20526;-90
2022/10/20 13:09:03;;;;;;;3.30;1.55;;;13.00;99.90;;;;;;4975007;28;20451;-91
2022/10/20 13:11:34;;;;;;;2.17;1.20;;;13.00;99.90;;;;;;4973442;28;20055;-91
2022/10/20 13:14:12;;;;;;;3.38;1.92;;;13.00;99.90;;;;;;4973469;28;20086;-89
2022/10/20 13:16:50;;;;;;;2.38;1.60;;;12.90;99.90;;;;;;4960969;28;20047;-88
2022/10/20 13:19:23;;;;;;;4.65;1.85;;;12.80;99.90;;;;;;4949943;28;20126;-92
2022/10/20 13:21:50;;;;;;;4.22;2.10;;;12.80;99.90;;;;;;4970062;28;20134;-88
2022/10/20 13:24:30;;;;;;;4.07;1.92;;;12.70;99.90;;;;;;4963304;28;20050;-91
2022/10/20 13:27:01;;;;;;;5.65;1.95;;;12.70;99.90;;;;;;4979449;28;20051;-92
2022/10/20 13:29:36;;;;;;;5.57;2.70;;;12.80;99.90;;;;;;4973814;28;20107;-88
2022/10/20 13:32:30;;;;;;;5.35;2.13;;;12.50;99.90;;;;;;4972448;28;20043;-89